Terminal Aerodrome Forecast
Issued by NWS

Home | Current Version | Previous Version | Text Only | Print | Product List | Glossary On
Versions: 1 2 3 4 5 6 7 8 9 10 11 12 13 14
000
FTUS46 KSGX 200535
TAFONT
TAF
KONT 200535Z 2006/2112 25008KT P6SM VCSH SCT025 BKN040
     FM201000 VRB06KT P6SM SCT030
     FM201700 27015G25KT P6SM BKN040
     FM210300 28009KT P6SM FEW030
     FM210600 VRB04KT P6SM FEW030=

USA.gov is the U.S. government's official web portal to all federal, state and local government web resources and services.